Time;durP1;ratioP1;P1;durP2;ratioP2;P2;SDS_P1;SDS_P2;PMS_P1;PMS_P2;Temp;Humidity;BMP_temperature;BMP_pressure;BME280_temperature;BME280_humidity;BME280_pressure;Samples;Min_cycle;Max_cycle;Signal;HPM_P1;HPM_P2
2024/02/06 00:01:47;;;;;;;10.10;4.55;;;9.50;99.90;;;;;;8440910;27;20069;-73
2024/02/06 00:05:49;;;;;;;14.30;5.10;;;9.50;99.90;;;;;;8449123;27;20054;-73
2024/02/06 00:09:51;;;;;;;8.88;4.43;;;9.50;99.90;;;;;;8451924;27;20047;-73
2024/02/06 00:13:53;;;;;;;10.80;4.57;;;9.50;99.90;;;;;;8454689;27;20039;-73
2024/02/06 00:17:55;;;;;;;12.63;5.07;;;9.50;99.90;;;;;;8454121;27;20048;-73
2024/02/06 00:21:57;;;;;;;12.35;4.65;;;9.60;99.90;;;;;;8440199;28;20506;-73
2024/02/06 00:25:59;;;;;;;9.82;4.50;;;9.60;99.90;;;;;;8438908;27;20135;-73
2024/02/06 00:30:01;;;;;;;9.32;4.90;;;9.60;99.90;;;;;;8437010;28;20052;-73
2024/02/06 00:34:03;;;;;;;12.57;5.00;;;9.60;99.90;;;;;;8441778;27;20051;-72
2024/02/06 00:38:05;;;;;;;8.30;3.92;;;9.60;99.90;;;;;;8445679;27;20047;-73
2024/02/06 00:42:07;;;;;;;14.82;5.05;;;9.60;99.90;;;;;;8451983;27;20048;-73
2024/02/06 00:46:09;;;;;;;13.10;4.70;;;9.60;99.90;;;;;;8448977;28;20059;-73
2024/02/06 00:50:11;;;;;;;11.27;4.82;;;9.60;99.90;;;;;;8443276;28;20174;-73
2024/02/06 00:54:13;;;;;;;16.77;4.68;;;9.60;99.90;;;;;;8450436;28;20552;-72
2024/02/06 00:58:16;;;;;;;9.48;5.60;;;9.60;99.90;;;;;;8457131;27;20407;-73
2024/02/06 01:02:17;;;;;;;16.10;4.43;;;9.70;99.90;;;;;;8437610;28;20050;-73
2024/02/06 01:06:28;;;;;;;13.57;4.25;;;9.70;99.90;;;;;;8437585;28;20048;-73
2024/02/06 01:10:30;;;;;;;11.05;3.85;;;9.70;99.90;;;;;;8451904;28;20056;-73
2024/02/06 01:14:32;;;;;;;14.27;4.68;;;9.70;99.90;;;;;;8435967;28;20040;-73
2024/02/06 01:18:34;;;;;;;11.07;3.97;;;9.70;99.90;;;;;;8448070;28;20039;-73
2024/02/06 01:22:36;;;;;;;16.65;4.57;;;9.70;99.90;;;;;;8442723;28;20058;-73
2024/02/06 01:26:38;;;;;;;10.70;4.25;;;9.70;99.90;;;;;;8448149;28;20036;-73
2024/02/06 01:30:39;;;;;;;12.65;3.67;;;9.70;99.90;;;;;;8450734;28;20066;-73
2024/02/06 01:34:41;;;;;;;11.27;4.00;;;9.80;99.90;;;;;;8448129;28;20546;-73
2024/02/06 01:38:43;;;;;;;14.70;4.35;;;9.70;99.90;;;;;;8455416;27;20042;-73
2024/02/06 01:42:47;;;;;;;9.65;3.97;;;9.80;99.90;;;;;;8442627;27;20043;-73
2024/02/06 01:46:51;;;;;;;9.68;3.30;;;9.80;99.90;;;;;;8465616;27;20069;-73
2024/02/06 01:50:53;;;;;;;15.43;4.47;;;9.80;99.90;;;;;;8436999;27;20483;-73
2024/02/06 01:54:55;;;;;;;11.15;4.57;;;9.80;99.90;;;;;;8455281;27;20440;-72
2024/02/06 01:58:57;;;;;;;10.88;3.97;;;9.80;99.90;;;;;;8454964;27;20075;-73
2024/02/06 02:02:59;;;;;;;10.02;3.65;;;9.80;99.90;;;;;;8458680;27;20113;-73
2024/02/06 02:07:01;;;;;;;10.95;3.85;;;9.80;99.90;;;;;;8441471;27;20059;-73
2024/02/06 02:11:04;;;;;;;13.07;3.63;;;9.80;99.90;;;;;;8457453;27;20512;-73
2024/02/06 02:15:06;;;;;;;11.15;3.30;;;9.80;99.90;;;;;;8460844;27;20039;-73
2024/02/06 02:19:08;;;;;;;10.77;4.18;;;9.80;99.90;;;;;;8431075;27;20399;-73
2024/02/06 02:23:11;;;;;;;13.38;3.90;;;9.80;99.90;;;;;;8452883;27;20075;-73
2024/02/06 02:32:48;;;;;;;12.23;3.83;;;9.80;99.90;;;;;;8444583;27;20046;-72
2024/02/06 02:36:50;;;;;;;11.85;3.97;;;9.80;99.90;;;;;;8461478;27;20415;-73
2024/02/06 02:40:51;;;;;;;11.82;3.20;;;9.80;99.90;;;;;;8455384;27;20465;-73
2024/02/06 02:44:53;;;;;;;15.73;4.20;;;9.80;99.90;;;;;;8469193;27;20047;-73
2024/02/06 02:49:23;;;;;;;10.80;3.63;;;9.80;99.90;;;;;;8457222;27;20721;-73
2024/02/06 02:53:25;;;;;;;18.42;4.32;;;9.80;99.90;;;;;;8442745;27;20049;-73
2024/02/06 02:57:27;;;;;;;11.80;4.20;;;9.90;99.90;;;;;;8448309;27;20078;-73
2024/02/06 03:01:30;;;;;;;16.23;4.03;;;9.90;99.90;;;;;;8455631;27;20047;-73
2024/02/06 03:05:32;;;;;;;16.63;4.35;;;9.90;99.90;;;;;;8442842;27;20058;-73
2024/02/06 03:09:35;;;;;;;12.27;4.93;;;9.90;99.90;;;;;;8429708;27;20131;-73
2024/02/06 03:14:30;;;;;;;11.15;3.90;;;9.90;99.90;;;;;;8451947;27;20098;-73
2024/02/06 03:18:32;;;;;;;11.65;4.10;;;9.90;99.90;;;;;;8444823;27;20192;-73
2024/02/06 03:22:34;;;;;;;16.95;4.22;;;10.00;99.90;;;;;;8427794;28;20078;-73
2024/02/06 03:26:36;;;;;;;10.73;3.95;;;9.90;99.90;;;;;;8457382;27;20055;-73
2024/02/06 03:30:38;;;;;;;12.07;3.88;;;9.90;99.90;;;;;;8428098;28;20059;-73
2024/02/06 03:34:40;;;;;;;10.43;3.83;;;9.90;99.90;;;;;;8469078;27;20054;-73
2024/02/06 03:38:42;;;;;;;13.90;3.95;;;9.90;99.90;;;;;;8444387;27;20104;-73
2024/02/06 03:42:44;;;;;;;11.88;4.18;;;9.90;99.90;;;;;;8438144;27;20556;-73
2024/02/06 03:46:45;;;;;;;14.88;4.78;;;9.80;99.90;;;;;;8464033;27;20054;-73
2024/02/06 03:50:47;;;;;;;9.82;3.83;;;9.80;99.90;;;;;;8454208;27;20079;-73
2024/02/06 03:54:49;;;;;;;12.70;4.20;;;9.80;99.90;;;;;;8429657;27;20449;-73
2024/02/06 03:58:51;;;;;;;8.75;4.15;;;9.90;99.90;;;;;;8428379;27;20039;-73
2024/02/06 04:02:52;;;;;;;8.65;3.25;;;9.90;99.90;;;;;;8439534;27;20112;-72
2024/02/06 04:06:54;;;;;;;11.65;3.20;;;9.90;99.90;;;;;;8454748;27;20054;-73
2024/02/06 04:10:57;;;;;;;11.93;3.28;;;9.90;99.90;;;;;;8458342;27;20476;-73
2024/02/06 04:14:59;;;;;;;12.70;3.78;;;9.90;99.90;;;;;;8432911;27;20047;-73
2024/02/06 04:19:01;;;;;;;8.90;3.15;;;9.90;99.90;;;;;;8422411;27;20052;-73
2024/02/06 04:23:03;;;;;;;12.18;3.33;;;9.90;99.90;;;;;;8440113;27;20525;-73
2024/02/06 04:27:05;;;;;;;8.65;3.30;;;9.90;99.90;;;;;;8428358;27;20043;-73
2024/02/06 04:31:07;;;;;;;10.00;3.30;;;9.90;99.90;;;;;;8440445;27;20051;-73
2024/02/06 04:35:09;;;;;;;14.48;3.42;;;9.90;99.90;;;;;;8444451;28;20047;-72
2024/02/06 04:39:11;;;;;;;9.32;3.25;;;9.90;99.90;;;;;;8436406;28;20047;-73
2024/02/06 04:43:13;;;;;;;13.30;3.85;;;9.90;99.90;;;;;;8437364;27;20059;-73
2024/02/06 04:47:14;;;;;;;10.65;3.88;;;10.00;99.90;;;;;;8451502;28;20055;-72
2024/02/06 04:51:16;;;;;;;13.85;3.33;;;10.00;99.90;;;;;;8447558;28;20044;-73
2024/02/06 04:55:18;;;;;;;11.18;3.88;;;10.00;99.90;;;;;;8436081;28;21096;-73
2024/02/06 04:59:20;;;;;;;14.88;4.10;;;10.00;99.90;;;;;;8451661;28;20055;-73
2024/02/06 05:04:12;;;;;;;12.43;3.45;;;10.00;99.90;;;;;;8434211;28;20563;-72
2024/02/06 05:08:13;;;;;;;12.18;3.90;;;10.00;99.90;;;;;;8455829;28;20054;-73
2024/02/06 05:12:15;;;;;;;11.02;3.40;;;10.00;99.90;;;;;;8430704;27;20063;-73
2024/02/06 05:16:17;;;;;;;11.82;3.53;;;10.00;99.90;;;;;;8441313;28;20047;-73
2024/02/06 05:20:19;;;;;;;16.13;4.00;;;10.00;99.90;;;;;;8456942;27;20093;-73
2024/02/06 05:24:21;;;;;;;13.13;3.88;;;9.90;99.90;;;;;;8449977;27;20522;-73
2024/02/06 05:28:23;;;;;;;14.90;4.45;;;9.90;99.90;;;;;;8434724;27;20047;-73
2024/02/06 05:32:25;;;;;;;14.15;4.00;;;9.80;99.90;;;;;;8442539;28;20112;-73
2024/02/06 05:36:26;;;;;;;10.90;4.97;;;9.80;99.90;;;;;;8453126;27;20035;-73
2024/02/06 05:40:29;;;;;;;12.65;4.38;;;9.90;99.90;;;;;;8445614;27;20089;-72
2024/02/06 05:44:31;;;;;;;13.50;3.70;;;9.90;99.90;;;;;;8459696;28;20056;-73
2024/02/06 05:48:33;;;;;;;13.88;4.05;;;9.90;99.90;;;;;;8455105;28;20058;-73
2024/02/06 05:52:37;;;;;;;12.75;4.22;;;9.90;99.90;;;;;;8440266;27;20047;-72
2024/02/06 05:56:40;;;;;;;15.52;4.03;;;10.00;99.90;;;;;;8463288;28;20047;-73
2024/02/06 06:00:41;;;;;;;14.15;4.03;;;10.00;99.90;;;;;;8460506;28;20089;-73
2024/02/06 06:04:44;;;;;;;12.90;3.60;;;10.10;99.90;;;;;;8460273;28;20055;-73
2024/02/06 06:08:47;;;;;;;16.95;4.05;;;10.20;99.90;;;;;;8462970;28;20052;-73
2024/02/06 06:12:49;;;;;;;16.67;4.10;;;10.30;99.90;;;;;;8437710;28;20048;-73
2024/02/06 06:16:50;;;;;;;14.70;3.58;;;10.30;99.90;;;;;;8457307;28;20051;-73
2024/02/06 06:20:53;;;;;;;14.65;3.78;;;10.30;99.90;;;;;;8454759;28;20036;-73
2024/02/06 06:24:55;;;;;;;15.23;4.20;;;10.40;99.90;;;;;;8438633;28;20054;-73
2024/02/06 06:28:56;;;;;;;15.18;3.78;;;10.40;99.90;;;;;;8440782;28;20105;-73
2024/02/06 06:32:58;;;;;;;23.65;4.32;;;10.40;99.90;;;;;;8460546;27;20096;-73
2024/02/06 06:37:00;;;;;;;22.67;5.00;;;10.40;99.90;;;;;;8455617;28;20093;-72
2024/02/06 06:41:03;;;;;;;16.42;4.53;;;10.40;99.90;;;;;;8442143;28;20126;-73
2024/02/06 06:45:05;;;;;;;17.10;3.83;;;10.40;99.90;;;;;;8428233;28;20070;-73
2024/02/06 06:49:07;;;;;;;15.43;3.80;;;10.40;99.90;;;;;;8447639;28;20051;-73
2024/02/06 06:53:09;;;;;;;16.77;4.03;;;10.40;99.90;;;;;;8453089;28;20043;-73
2024/02/06 06:57:11;;;;;;;13.63;3.95;;;10.50;99.90;;;;;;8458200;28;20043;-73
2024/02/06 07:01:13;;;;;;;20.63;4.30;;;10.50;99.90;;;;;;8445565;28;20048;-73
2024/02/06 07:05:21;;;;;;;14.55;4.05;;;10.50;99.90;;;;;;8450766;28;20470;-72
2024/02/06 07:09:26;;;;;;;15.32;4.40;;;10.50;99.90;;;;;;8450594;28;20048;-73
2024/02/06 07:13:28;;;;;;;22.42;3.83;;;10.50;99.90;;;;;;8444923;28;20491;-73
2024/02/06 07:17:31;;;;;;;18.08;4.68;;;10.50;99.90;;;;;;8453512;28;20403;-73
2024/02/06 07:21:33;;;;;;;14.10;4.50;;;10.50;99.90;;;;;;8444532;28;20502;-73
2024/02/06 07:25:36;;;;;;;14.63;3.88;;;10.50;99.90;;;;;;8453385;28;20040;-73
2024/02/06 07:29:38;;;;;;;14.18;3.40;;;10.50;99.90;;;;;;8433873;28;20090;-72
2024/02/06 07:33:43;;;;;;;17.73;3.55;;;10.50;99.90;;;;;;8450529;28;20055;-72
2024/02/06 07:37:45;;;;;;;20.23;5.60;;;10.60;99.90;;;;;;8433561;27;20039;-72
2024/02/06 07:41:47;;;;;;;15.35;3.85;;;10.60;99.90;;;;;;8456845;28;20054;-73
2024/02/06 07:45:50;;;;;;;15.30;3.33;;;10.70;99.90;;;;;;8441307;28;20047;-73
2024/02/06 07:49:52;;;;;;;16.50;3.17;;;10.70;99.90;;;;;;8440325;28;20100;-73
2024/02/06 07:53:54;;;;;;;15.98;4.18;;;10.70;99.90;;;;;;8435715;28;20044;-73
2024/02/06 07:57:56;;;;;;;18.27;4.18;;;10.70;99.90;;;;;;8448602;28;20407;-73
2024/02/06 08:07:02;;;;;;;10.88;3.00;;;10.70;99.90;;;;;;8453084;28;20051;-73
2024/02/06 08:11:04;;;;;;;21.83;4.13;;;10.70;99.90;;;;;;8449187;27;20048;-73
2024/02/06 08:15:08;;;;;;;12.27;3.63;;;10.70;99.90;;;;;;8455367;28;20101;-73
2024/02/06 08:19:10;;;;;;;15.98;4.00;;;10.70;99.90;;;;;;8454055;28;20052;-73
2024/02/06 08:23:35;;;;;;;9.77;3.45;;;10.70;99.90;;;;;;8445624;28;20126;-73
2024/02/06 08:27:36;;;;;;;13.85;3.88;;;10.60;99.90;;;;;;8430880;28;20047;-73
2024/02/06 08:37:01;;;;;;;12.43;3.72;;;10.50;99.90;;;;;;8443442;28;20049;-73
2024/02/06 08:41:06;;;;;;;14.00;3.40;;;10.50;99.90;;;;;;8446209;28;20484;-73
2024/02/06 08:45:08;;;;;;;10.32;3.65;;;10.60;99.90;;;;;;8444512;28;20477;-73
2024/02/06 08:49:10;;;;;;;15.40;2.90;;;10.70;99.90;;;;;;8450310;28;20108;-73
2024/02/06 08:58:34;;;;;;;15.48;3.60;;;10.80;99.90;;;;;;8437161;28;20038;-73
2024/02/06 09:02:36;;;;;;;12.27;3.40;;;10.90;99.90;;;;;;8431788;28;20392;-73
2024/02/06 09:06:39;;;;;;;13.65;3.28;;;11.00;99.90;;;;;;8444435;28;20060;-73
2024/02/06 09:10:41;;;;;;;6.55;2.60;;;11.00;99.90;;;;;;8439469;28;20066;-73
2024/02/06 09:15:28;;;;;;;9.25;2.90;;;11.10;99.90;;;;;;8449786;28;20514;-73
2024/02/06 09:19:30;;;;;;;15.38;3.13;;;11.10;99.90;;;;;;8450484;28;20407;-73
2024/02/06 09:23:32;;;;;;;11.48;2.95;;;11.20;99.90;;;;;;8446267;28;20444;-72
2024/02/06 09:27:34;;;;;;;9.73;2.90;;;11.30;99.90;;;;;;8446339;28;20044;-73
2024/02/06 09:31:37;;;;;;;9.77;3.58;;;11.40;99.90;;;;;;8448805;28;20059;-73
2024/02/06 09:35:39;;;;;;;15.20;3.25;;;11.40;99.90;;;;;;8439162;28;20043;-73
2024/02/06 09:39:42;;;;;;;15.15;3.88;;;11.40;99.90;;;;;;8454850;28;20104;-73
2024/02/06 09:43:44;;;;;;;15.50;3.38;;;11.40;99.90;;;;;;8443209;28;20043;-73
2024/02/06 09:47:46;;;;;;;12.93;4.07;;;11.40;99.90;;;;;;8437934;28;20040;-73
2024/02/06 09:51:49;;;;;;;8.50;2.45;;;11.50;99.90;;;;;;8434609;28;20040;-73
2024/02/06 09:55:52;;;;;;;10.90;2.80;;;11.50;99.90;;;;;;8427252;28;20415;-72
2024/02/06 09:59:57;;;;;;;15.02;3.47;;;11.60;99.90;;;;;;8449495;28;20059;-73
2024/02/06 10:04:00;;;;;;;11.27;3.28;;;11.60;99.90;;;;;;8449467;27;20443;-72
2024/02/06 10:08:04;;;;;;;11.95;3.38;;;11.50;99.90;;;;;;8449800;27;20047;-73
2024/02/06 10:12:06;;;;;;;15.82;4.03;;;11.50;99.90;;;;;;8435888;28;20047;-73
2024/02/06 10:16:08;;;;;;;11.52;3.55;;;11.60;99.90;;;;;;8428797;28;20047;-73
2024/02/06 10:20:11;;;;;;;12.82;3.45;;;11.60;99.90;;;;;;8455396;28;20059;-73
2024/02/06 10:24:17;;;;;;;15.73;4.03;;;11.60;99.90;;;;;;8453306;28;20114;-73
2024/02/06 10:28:23;;;;;;;13.40;3.35;;;11.70;99.90;;;;;;8449333;28;20055;-73
2024/02/06 10:32:30;;;;;;;8.27;2.72;;;11.80;99.90;;;;;;8439604;28;20130;-73
2024/02/06 10:36:33;;;;;;;11.47;3.40;;;11.90;99.90;;;;;;8441043;28;20043;-73
2024/02/06 10:40:35;;;;;;;14.43;3.33;;;12.00;99.90;;;;;;8446875;28;20043;-73
2024/02/06 10:50:01;;;;;;;18.55;3.40;;;12.10;99.90;;;;;;8444321;28;20054;-73
2024/02/06 10:54:03;;;;;;;16.48;3.72;;;12.20;99.90;;;;;;8443520;28;20067;-72
2024/02/06 10:58:06;;;;;;;8.38;2.72;;;12.30;99.90;;;;;;8446367;28;20446;-74
2024/02/06 11:07:38;;;;;;;9.18;2.72;;;12.30;99.90;;;;;;8446537;28;20035;-73
2024/02/06 11:11:41;;;;;;;9.88;3.10;;;12.30;99.90;;;;;;8443395;28;20048;-73
2024/02/06 11:15:43;;;;;;;13.65;3.30;;;12.30;99.90;;;;;;8452209;28;20429;-73
2024/02/06 11:19:58;;;;;;;11.38;3.08;;;12.30;99.90;;;;;;8454290;28;20057;-73
2024/02/06 11:29:22;;;;;;;10.52;3.65;;;12.20;99.90;;;;;;8432956;28;20547;-73
2024/02/06 11:33:30;;;;;;;9.95;3.50;;;12.20;99.90;;;;;;8449376;28;20039;-73
2024/02/06 11:37:38;;;;;;;13.15;3.63;;;12.10;99.90;;;;;;8433356;28;20046;-72
2024/02/06 11:41:41;;;;;;;8.60;3.40;;;12.10;99.90;;;;;;8444275;28;20051;-72
2024/02/06 11:45:43;;;;;;;12.13;3.63;;;12.10;99.90;;;;;;8447858;28;20060;-73
2024/02/06 11:49:45;;;;;;;12.90;3.10;;;12.10;99.90;;;;;;8441750;28;20083;-73
2024/02/06 11:53:47;;;;;;;8.98;3.40;;;12.10;99.90;;;;;;8451580;28;20040;-72
2024/02/06 11:57:49;;;;;;;8.50;2.45;;;12.10;99.90;;;;;;8451084;28;20514;-73
2024/02/06 12:01:51;;;;;;;8.80;2.65;;;12.00;99.90;;;;;;8449134;28;20048;-73
2024/02/06 12:05:53;;;;;;;11.73;2.83;;;12.00;99.90;;;;;;8445474;28;20050;-73
2024/02/06 12:09:55;;;;;;;9.75;2.90;;;12.00;99.90;;;;;;8456510;28;20093;-73
2024/02/06 12:13:57;;;;;;;9.70;3.42;;;12.00;99.90;;;;;;8440264;28;20051;-73
2024/02/06 12:18:03;;;;;;;14.30;3.03;;;12.00;99.90;;;;;;8445327;28;20051;-73
2024/02/06 12:22:07;;;;;;;10.00;3.08;;;12.00;99.90;;;;;;8454696;28;20138;-73
2024/02/06 12:26:09;;;;;;;11.27;3.42;;;12.10;99.90;;;;;;8442837;28;20061;-73
2024/02/06 12:30:22;;;;;;;13.90;3.72;;;12.10;99.90;;;;;;8446095;28;20052;-73
2024/02/06 12:34:24;;;;;;;8.18;2.85;;;12.10;99.90;;;;;;8438895;28;20039;-73
2024/02/06 12:38:26;;;;;;;11.98;3.15;;;12.10;99.90;;;;;;8453675;28;20073;-73
2024/02/06 12:42:28;;;;;;;13.18;2.88;;;12.20;99.90;;;;;;8443572;28;20047;-73
2024/02/06 12:46:33;;;;;;;14.43;3.30;;;12.30;99.90;;;;;;8428475;28;20502;-73
2024/02/06 12:50:35;;;;;;;12.18;2.97;;;12.40;99.90;;;;;;8449558;28;20119;-73
2024/02/06 12:54:39;;;;;;;11.98;2.92;;;12.50;99.90;;;;;;8446165;28;20050;-73
2024/02/06 12:58:41;;;;;;;11.30;2.92;;;12.60;99.90;;;;;;8435131;28;20055;-72
2024/02/06 13:02:44;;;;;;;15.18;3.28;;;12.60;99.90;;;;;;8436303;28;20090;-73
2024/02/06 13:06:46;;;;;;;10.30;2.60;;;12.50;99.90;;;;;;8446576;28;20503;-73
2024/02/06 13:10:49;;;;;;;15.68;2.80;;;12.50;99.90;;;;;;8452890;28;20446;-73
2024/02/06 13:14:52;;;;;;;9.85;2.90;;;12.50;99.90;;;;;;8434267;28;20563;-73
2024/02/06 13:30:10;;;;;;;11.77;2.65;;;12.30;99.90;;;;;;8449458;28;20050;-72
2024/02/06 13:34:13;;;;;;;16.05;4.68;;;12.20;99.90;;;;;;8455577;28;20486;-72
2024/02/06 13:38:15;;;;;;;16.65;3.45;;;12.20;99.90;;;;;;8451621;28;20042;-73
2024/02/06 13:42:17;;;;;;;17.77;3.70;;;12.20;99.90;;;;;;8443510;28;20395;-73
2024/02/06 13:46:18;;;;;;;16.17;3.40;;;12.20;99.90;;;;;;8459021;28;20047;-73
2024/02/06 13:50:21;;;;;;;12.35;2.58;;;12.20;99.90;;;;;;8445222;27;20079;-73
2024/02/06 13:54:24;;;;;;;13.63;3.60;;;12.20;99.90;;;;;;8452115;28;20051;-72
2024/02/06 13:58:25;;;;;;;14.18;3.75;;;12.20;99.90;;;;;;8442832;28;20052;-73
2024/02/06 14:02:27;;;;;;;16.80;3.75;;;12.10;99.90;;;;;;8450163;28;20048;-73
2024/02/06 14:06:29;;;;;;;16.15;3.42;;;12.10;99.90;;;;;;8453209;27;20058;-73
2024/02/06 14:10:31;;;;;;;15.00;3.25;;;12.10;99.90;;;;;;8456240;28;20040;-72
2024/02/06 14:14:33;;;;;;;18.75;3.55;;;12.10;99.90;;;;;;8443528;28;20051;-73
2024/02/06 14:18:35;;;;;;;13.93;2.83;;;12.00;99.90;;;;;;8460480;28;20100;-72
2024/02/06 14:22:37;;;;;;;14.13;3.33;;;12.00;99.90;;;;;;8460359;28;20040;-73
2024/02/06 14:26:39;;;;;;;15.18;2.92;;;12.00;99.90;;;;;;8433122;28;20051;-73
2024/02/06 14:30:42;;;;;;;10.18;2.40;;;12.00;99.90;;;;;;8450934;28;20159;-73
2024/02/06 14:34:44;;;;;;;7.78;2.28;;;12.00;99.90;;;;;;8438569;28;20500;-73
2024/02/06 14:38:46;;;;;;;10.77;2.85;;;12.00;99.90;;;;;;8447254;28;20126;-73
2024/02/06 14:42:48;;;;;;;10.77;2.42;;;12.00;99.90;;;;;;8448079;28;20047;-73
2024/02/06 14:46:49;;;;;;;14.57;2.65;;;12.00;99.90;;;;;;8455661;28;20119;-73
2024/02/06 14:50:52;;;;;;;13.85;3.08;;;12.00;99.90;;;;;;8460607;28;20044;-73
2024/02/06 14:54:55;;;;;;;12.40;3.30;;;12.00;99.90;;;;;;8451987;28;20095;-73
2024/02/06 14:58:57;;;;;;;9.27;2.40;;;12.00;99.90;;;;;;8441278;28;20515;-73
2024/02/06 15:02:59;;;;;;;11.60;2.80;;;12.00;99.90;;;;;;8452809;28;20039;-73
2024/02/06 15:07:10;;;;;;;15.20;2.40;;;11.90;99.90;;;;;;8441162;28;20063;-73
2024/02/06 15:11:12;;;;;;;13.73;2.72;;;11.90;99.90;;;;;;8442570;28;20105;-73
2024/02/06 15:15:14;;;;;;;11.48;3.05;;;11.90;99.90;;;;;;8453190;28;20036;-73
2024/02/06 15:19:16;;;;;;;12.85;2.75;;;11.80;99.90;;;;;;8436684;28;20044;-72
2024/02/06 15:23:18;;;;;;;10.82;3.03;;;11.80;99.90;;;;;;8456930;28;20052;-73
2024/02/06 15:27:20;;;;;;;16.45;3.50;;;11.70;99.90;;;;;;8433118;27;20044;-73
2024/02/06 15:31:22;;;;;;;16.38;4.32;;;11.70;99.90;;;;;;8454275;28;20054;-73
2024/02/06 15:40:45;;;;;;;17.63;3.40;;;11.70;99.90;;;;;;8455947;28;20030;-73
2024/02/06 15:49:49;;;;;;;20.40;3.70;;;11.60;99.90;;;;;;8451510;28;20407;-73
2024/02/06 15:53:51;;;;;;;22.42;4.28;;;11.60;99.90;;;;;;8450537;28;20054;-73
2024/02/06 15:57:53;;;;;;;24.40;5.07;;;11.60;99.90;;;;;;8451538;27;20066;-73
2024/02/06 16:01:55;;;;;;;15.65;4.80;;;11.60;99.90;;;;;;8453839;28;20039;-73
2024/02/06 16:05:58;;;;;;;16.20;3.78;;;11.60;99.90;;;;;;8458259;28;20100;-73
2024/02/06 16:10:06;;;;;;;14.80;4.40;;;11.60;99.90;;;;;;8448961;28;20168;-73
2024/02/06 16:14:21;;;;;;;20.90;5.18;;;11.60;99.90;;;;;;8441797;28;20048;-73
2024/02/06 16:18:23;;;;;;;18.45;4.30;;;11.50;99.90;;;;;;8445337;28;20535;-73
2024/02/06 16:22:25;;;;;;;22.38;4.63;;;11.50;99.90;;;;;;8447607;28;20104;-73
2024/02/06 16:26:27;;;;;;;19.95;3.92;;;11.50;99.90;;;;;;8444585;28;20055;-73
2024/02/06 16:30:28;;;;;;;21.67;4.97;;;11.50;99.90;;;;;;8447843;28;20052;-73
2024/02/06 16:34:30;;;;;;;24.05;5.32;;;11.50;99.90;;;;;;8447995;27;20043;-73
2024/02/06 16:38:41;;;;;;;21.48;5.72;;;11.50;99.90;;;;;;8450590;28;20070;-72
2024/02/06 16:48:05;;;;;;;25.38;4.80;;;11.40;99.90;;;;;;8452804;28;20545;-73
2024/02/06 16:52:08;;;;;;;17.92;4.47;;;11.40;99.90;;;;;;8432286;28;20073;-73
2024/02/06 16:56:10;;;;;;;21.80;4.97;;;11.50;99.90;;;;;;8440833;28;20499;-73
2024/02/06 17:00:13;;;;;;;24.92;5.20;;;11.50;99.90;;;;;;8441347;28;20087;-73
2024/02/06 17:04:15;;;;;;;19.52;4.07;;;11.50;99.90;;;;;;8437440;28;20052;-73
2024/02/06 17:08:17;;;;;;;17.20;4.25;;;11.50;99.90;;;;;;8447176;28;20052;-73
2024/02/06 17:12:22;;;;;;;18.27;4.85;;;11.50;99.90;;;;;;8432862;28;20516;-73
2024/02/06 17:22:43;;;;;;;25.17;5.28;;;11.60;99.90;;;;;;8448310;28;20347;-73
2024/02/06 17:26:45;;;;;;;22.00;5.28;;;11.60;99.90;;;;;;8423535;28;20048;-73
2024/02/06 17:30:47;;;;;;;22.33;5.85;;;11.60;99.90;;;;;;8437391;28;20047;-73
2024/02/06 17:34:49;;;;;;;13.98;4.32;;;11.60;99.90;;;;;;8449210;28;20043;-73
2024/02/06 17:38:51;;;;;;;15.70;4.10;;;11.60;99.90;;;;;;8441436;28;20142;-73
2024/02/06 17:48:16;;;;;;;23.15;4.97;;;11.60;99.90;;;;;;8429073;28;20484;-72
2024/02/06 17:57:41;;;;;;;22.45;5.20;;;11.50;99.90;;;;;;8423088;28;20514;-73
2024/02/06 18:01:46;;;;;;;21.55;4.95;;;11.50;99.90;;;;;;8421925;28;20100;-72
2024/02/06 18:05:48;;;;;;;19.52;4.47;;;11.50;99.90;;;;;;8423872;28;20479;-73
2024/02/06 18:09:50;;;;;;;14.27;4.22;;;11.50;99.90;;;;;;8426217;28;20044;-73
2024/02/06 18:13:52;;;;;;;14.00;4.53;;;11.50;99.90;;;;;;8403606;28;20475;-72
2024/02/06 18:17:54;;;;;;;23.98;5.72;;;11.50;99.90;;;;;;8428456;28;20040;-73
2024/02/06 18:21:57;;;;;;;20.17;5.05;;;11.40;99.90;;;;;;8430478;28;20052;-73
2024/02/06 18:26:03;;;;;;;16.90;5.55;;;11.40;99.90;;;;;;8430588;28;20052;-73
2024/02/06 18:30:05;;;;;;;23.38;4.65;;;11.40;99.90;;;;;;8434859;27;20134;-73
2024/02/06 18:34:07;;;;;;;20.50;5.40;;;11.30;99.90;;;;;;8425156;28;20100;-73
2024/02/06 18:38:09;;;;;;;18.67;4.88;;;11.20;99.90;;;;;;8433212;28;20044;-73
2024/02/06 18:42:11;;;;;;;23.33;5.57;;;11.10;99.90;;;;;;8432760;28;20052;-73
2024/02/06 18:46:12;;;;;;;19.17;5.68;;;11.00;99.90;;;;;;8431109;28;20052;-74
2024/02/06 18:50:14;;;;;;;16.75;4.75;;;10.90;99.90;;;;;;8422629;28;20421;-73
2024/02/06 18:54:16;;;;;;;18.75;5.00;;;10.90;99.90;;;;;;8429743;27;20054;-73
2024/02/06 18:58:18;;;;;;;17.50;5.53;;;10.80;99.90;;;;;;8413956;27;20485;-73
2024/02/06 19:02:20;;;;;;;22.42;5.88;;;10.70;99.90;;;;;;8422909;27;20462;-72
2024/02/06 19:06:22;;;;;;;18.48;5.15;;;10.70;99.90;;;;;;8431722;27;20412;-72
2024/02/06 19:10:24;;;;;;;19.50;5.38;;;10.60;99.90;;;;;;8422948;28;20052;-73
2024/02/06 19:14:26;;;;;;;21.73;5.70;;;10.60;99.90;;;;;;8427628;28;20070;-73
2024/02/06 19:18:27;;;;;;;14.25;4.90;;;10.50;99.90;;;;;;8432994;28;20059;-73
2024/02/06 19:22:29;;;;;;;21.45;6.95;;;10.50;99.90;;;;;;8424618;27;20567;-73
2024/02/06 19:26:32;;;;;;;23.58;5.55;;;10.40;99.90;;;;;;8427976;27;20605;-74
2024/02/06 19:30:37;;;;;;;16.90;5.03;;;10.40;99.90;;;;;;8432541;27;20116;-74
2024/02/06 19:34:39;;;;;;;26.75;6.05;;;10.30;99.90;;;;;;8422642;28;20043;-74
2024/02/06 19:38:41;;;;;;;20.08;5.38;;;10.30;99.90;;;;;;8435508;27;20083;-73
2024/02/06 19:42:43;;;;;;;16.15;4.97;;;10.30;99.90;;;;;;8430623;27;20043;-74
2024/02/06 19:46:45;;;;;;;16.42;5.60;;;10.20;99.90;;;;;;8429112;28;20556;-74
2024/02/06 19:50:48;;;;;;;17.45;4.82;;;10.20;99.90;;;;;;8429210;28;20086;-73
2024/02/06 19:54:50;;;;;;;15.82;5.25;;;10.20;99.90;;;;;;8429271;27;20096;-74
2024/02/06 19:58:52;;;;;;;13.65;5.03;;;10.20;99.90;;;;;;8431775;27;20475;-74
2024/02/06 20:02:54;;;;;;;14.55;6.38;;;10.30;99.90;;;;;;8432227;27;20036;-74
2024/02/06 20:06:55;;;;;;;17.10;5.25;;;10.20;99.90;;;;;;8430067;27;20051;-74
2024/02/06 20:10:57;;;;;;;16.27;5.85;;;10.30;99.90;;;;;;8430087;27;20051;-75
2024/02/06 20:14:59;;;;;;;19.33;5.47;;;10.20;99.90;;;;;;8429136;27;20050;-75
2024/02/06 20:19:01;;;;;;;16.25;5.88;;;10.30;99.90;;;;;;8432443;27;20047;-75
2024/02/06 20:23:04;;;;;;;13.98;5.60;;;10.30;99.90;;;;;;8411847;28;20138;-75
2024/02/06 20:27:06;;;;;;;19.70;6.18;;;10.30;99.90;;;;;;8427625;28;20076;-75
2024/02/06 20:31:08;;;;;;;14.52;5.15;;;10.30;99.90;;;;;;8421247;28;20044;-75
2024/02/06 20:35:10;;;;;;;16.60;5.68;;;10.30;99.90;;;;;;8418928;28;20054;-75
2024/02/06 20:39:12;;;;;;;14.80;4.85;;;10.30;99.90;;;;;;8427995;28;20093;-75
2024/02/06 20:43:14;;;;;;;11.88;4.82;;;10.30;99.90;;;;;;8425088;28;20127;-76
2024/02/06 20:47:16;;;;;;;13.50;4.72;;;10.30;99.90;;;;;;8411186;28;20043;-76
2024/02/06 20:51:19;;;;;;;12.95;4.70;;;10.40;99.90;;;;;;8429428;28;20043;-76
2024/02/06 20:55:21;;;;;;;15.85;5.80;;;10.40;99.90;;;;;;8431462;27;20051;-76
2024/02/06 20:59:23;;;;;;;12.95;5.15;;;10.40;99.90;;;;;;8416425;28;20063;-77
2024/02/06 21:03:25;;;;;;;11.98;5.38;;;10.40;99.90;;;;;;8417796;28;20588;-76
2024/02/06 21:07:27;;;;;;;15.43;5.35;;;10.40;99.90;;;;;;8432210;28;20055;-77
2024/02/06 21:11:30;;;;;;;16.60;5.00;;;10.40;99.90;;;;;;8417677;28;20052;-77
2024/02/06 21:15:32;;;;;;;13.38;4.55;;;10.40;99.90;;;;;;8426923;28;20040;-76
2024/02/06 21:19:34;;;;;;;15.18;4.28;;;10.40;99.90;;;;;;8409021;28;20044;-77
2024/02/06 21:23:36;;;;;;;13.77;4.85;;;10.40;99.90;;;;;;8429317;28;20396;-77
2024/02/06 21:27:38;;;;;;;8.73;4.30;;;10.50;99.90;;;;;;8429568;28;20480;-77
2024/02/06 21:31:40;;;;;;;10.43;4.20;;;10.50;99.90;;;;;;8425988;28;20059;-78
2024/02/06 21:41:00;;;;;;;11.68;4.55;;;10.50;99.90;;;;;;8431503;28;20147;-78
2024/02/06 21:45:03;;;;;;;10.70;4.00;;;10.50;99.90;;;;;;8427868;28;20040;-79
2024/02/06 21:49:05;;;;;;;9.50;4.65;;;10.50;99.90;;;;;;8428296;28;20044;-78
2024/02/06 21:53:07;;;;;;;10.63;4.22;;;10.50;99.90;;;;;;8426899;28;20044;-78
2024/02/06 21:57:08;;;;;;;12.27;5.32;;;10.40;99.90;;;;;;8435344;28;20051;-78
2024/02/06 22:01:10;;;;;;;12.23;4.30;;;10.40;99.90;;;;;;8429381;28;20104;-79
2024/02/06 22:05:13;;;;;;;8.48;3.85;;;10.40;99.90;;;;;;8453592;27;20044;-77
2024/02/06 22:09:15;;;;;;;14.15;4.32;;;10.50;99.90;;;;;;8458142;28;20364;-78
2024/02/06 22:13:17;;;;;;;13.20;3.90;;;10.40;99.90;;;;;;8457894;27;20051;-78
2024/02/06 22:17:19;;;;;;;11.27;3.78;;;10.40;99.90;;;;;;8455652;28;20540;-77
2024/02/06 22:21:21;;;;;;;9.68;3.70;;;10.40;99.90;;;;;;8448265;28;20122;-78